Whitt, Texas
Current Conditions -  °F | °C
As of 10:53 PM on Monday 26 Jan 2015 (Local Time) from KMWL Reporting Station
Clear Clear  
Wind Chill: 53°   Ceiling: Unl
Heat Index: 53°   Visibility: 10mi
Dew Point: 35°   Wind: 3mph
Humidity: 50%   Direction: 330°NNW
Pressure: 30.1"   Gusts: NA
Location:  32.96°N, 98.02°W
Report Text: KMWL 270453Z AUTO 33003KT 10SM CLR 12/02 A3010 RMK AO2 SLP188 T01170017
Loading
Personal Weather Stations






























Interactive Weather Map New forecast layout! Learn more

10-Day Weather Forecast

Advertisements
Track Severe Weather on mobile